Time,TemperatureF,DewpointF,PressureIn,WindDirection,WindDirectionDegrees,WindSpeedMPH,WindSpeedGustMPH,Humidity,HourlyPrecipIn,Conditions,Clouds,dailyrainin,SoftwareType,DateUTC
2013-01-23 00:09:00,49.8,45.2,30.08,South,180,0.0,-999.0,84,-99.99,,,0.00,Acu-Link.com,2013-01-23 06:09:00,
2013-01-23 00:24:00,48.9,45.2,30.08,South,180,0.0,-999.0,87,-99.99,,,0.00,Acu-Link.com,2013-01-23 06:24:00,
2013-01-23 00:39:00,49.3,45.3,30.08,South,180,2.2,-999.0,86,-99.99,,,0.00,Acu-Link.com,2013-01-23 06:39:00,
2013-01-23 00:55:00,49.3,45.3,30.09,South,180,2.7,-999.0,86,-99.99,,,0.00,Acu-Link.com,2013-01-23 06:55:00,
2013-01-23 01:10:00,49.1,45.4,30.10,South,180,2.7,-999.0,87,-99.99,,,0.00,Acu-Link.com,2013-01-23 07:10:00,
2013-01-23 01:25:00,48.0,44.6,30.10,South,180,2.7,-999.0,88,-99.99,,,0.00,Acu-Link.com,2013-01-23 07:25:00,
2013-01-23 01:41:00,47.8,44.7,30.10,South,180,1.1,-999.0,89,-99.99,,,0.00,Acu-Link.com,2013-01-23 07:41:00,
2013-01-23 02:11:00,48.4,45.3,30.10,South,180,0.0,-999.0,89,-99.99,,,0.00,Acu-Link.com,2013-01-23 08:11:00,
2013-01-23 02:27:00,47.7,44.9,30.10,South,180,0.0,-999.0,90,-99.99,,,0.00,Acu-Link.com,2013-01-23 08:27:00,
2013-01-23 02:42:00,47.8,45.0,30.10,South,180,3.7,-999.0,90,-99.99,,,0.00,Acu-Link.com,2013-01-23 08:42:00,
2013-01-23 02:57:00,47.7,44.6,30.10,South,180,3.2,-999.0,89,-99.99,,,0.00,Acu-Link.com,2013-01-23 08:57:00,
2013-01-23 03:14:00,47.7,44.6,30.10,South,180,0.0,-999.0,89,-99.99,,,0.00,Acu-Link.com,2013-01-23 09:14:00,
2013-01-23 03:29:00,47.3,44.5,30.10,South,180,2.7,-999.0,90,-99.99,,,0.00,Acu-Link.com,2013-01-23 09:29:00,
2013-01-23 03:44:00,47.1,44.3,30.10,South,180,3.2,-999.0,90,-99.99,,,0.00,Acu-Link.com,2013-01-23 09:44:00,
2013-01-23 03:59:00,46.6,44.1,30.10,South,180,2.2,-999.0,91,-99.99,,,0.00,Acu-Link.com,2013-01-23 09:59:00,
2013-01-23 04:15:00,46.4,44.2,30.10,South,180,2.7,-999.0,92,-99.99,,,0.00,Acu-Link.com,2013-01-23 10:15:00,
2013-01-23 04:30:00,46.0,44.1,30.10,South,180,2.7,-999.0,93,-99.99,,,0.00,Acu-Link.com,2013-01-23 10:30:00,
2013-01-23 04:46:00,45.9,44.3,30.10,South,180,2.7,-999.0,94,-99.99,,,0.00,Acu-Link.com,2013-01-23 10:46:00,
2013-01-23 05:16:00,45.5,44.2,30.10,South,180,3.7,-999.0,95,-99.99,,,0.00,Acu-Link.com,2013-01-23 11:16:00,
2013-01-23 05:31:00,45.5,44.2,30.10,South,180,2.7,-999.0,95,-99.99,,,0.00,Acu-Link.com,2013-01-23 11:31:00,
2013-01-23 05:46:00,45.0,43.9,30.10,South,180,2.7,-999.0,96,-99.99,,,0.00,Acu-Link.com,2013-01-23 11:46:00,
2013-01-23 06:02:00,44.8,44.3,30.11,South,180,3.2,-999.0,98,-99.99,,,0.00,Acu-Link.com,2013-01-23 12:02:00,
2013-01-23 06:17:00,44.6,44.1,30.12,South,180,4.2,-999.0,98,-99.99,,,0.00,Acu-Link.com,2013-01-23 12:17:00,
2013-01-23 06:32:00,44.2,43.9,30.13,South,180,2.7,-999.0,99,-99.99,,,0.00,Acu-Link.com,2013-01-23 12:32:00,
2013-01-23 06:47:00,43.9,43.6,30.12,South,180,2.2,-999.0,99,-99.99,,,0.00,Acu-Link.com,2013-01-23 12:47:00,
2013-01-23 07:02:00,43.7,43.4,30.13,South,180,2.2,-999.0,99,-99.99,,,0.00,Acu-Link.com,2013-01-23 13:02:00,
2013-01-23 07:18:00,43.5,43.2,30.14,South,180,1.7,-999.0,99,-99.99,,,0.00,Acu-Link.com,2013-01-23 13:18:00,
2013-01-23 07:33:00,43.5,43.2,30.14,South,180,2.7,-999.0,99,-99.99,,,0.00,Acu-Link.com,2013-01-23 13:33:00,
2013-01-23 07:48:00,43.7,43.4,30.14,South,180,0.0,-999.0,99,-99.99,,,0.00,Acu-Link.com,2013-01-23 13:48:00,
2013-01-23 08:04:00,45.3,45.0,30.13,South,180,3.2,-999.0,99,-99.99,,,0.00,Acu-Link.com,2013-01-23 14:04:00,
2013-01-23 08:19:00,47.8,45.6,30.13,South,180,3.7,-999.0,92,-99.99,,,0.00,Acu-Link.com,2013-01-23 14:19:00,
2013-01-23 08:34:00,48.9,46.1,30.14,South,180,2.7,-999.0,90,-99.99,,,0.00,Acu-Link.com,2013-01-23 14:34:00,
2013-01-23 08:50:00,50.2,47.1,30.15,South,180,1.7,-999.0,89,-99.99,,,0.00,Acu-Link.com,2013-01-23 14:50:00,
2013-01-23 09:05:00,51.4,47.7,30.15,SSE,157,4.2,-999.0,87,-99.99,,,0.00,Acu-Link.com,2013-01-23 15:05:00,
2013-01-23 09:20:00,52.3,48.2,30.16,SSE,157,5.3,-999.0,86,-99.99,,,0.00,Acu-Link.com,2013-01-23 15:20:00,
2013-01-23 09:36:00,54.3,49.2,30.15,SE,135,5.8,-999.0,83,-99.99,,,0.00,Acu-Link.com,2013-01-23 15:36:00,
2013-01-23 09:51:00,56.3,49.5,30.16,SSE,157,5.3,-999.0,78,-99.99,,,0.00,Acu-Link.com,2013-01-23 15:51:00,
2013-01-23 10:06:00,57.6,50.1,30.17,South,180,1.7,-999.0,76,-99.99,,,0.00,Acu-Link.com,2013-01-23 16:06:00,
2013-01-23 10:21:00,60.1,50.3,30.17,South,180,3.2,-999.0,70,-99.99,,,0.00,Acu-Link.com,2013-01-23 16:21:00,
2013-01-23 10:37:00,62.1,50.6,30.17,South,180,4.7,-999.0,66,-99.99,,,0.00,Acu-Link.com,2013-01-23 16:37:00,
2013-01-23 10:52:00,62.2,50.3,30.17,South,180,6.8,-999.0,65,-99.99,,,0.00,Acu-Link.com,2013-01-23 16:52:00,
2013-01-23 11:08:00,61.5,50.0,30.16,SSW,202,9.4,-999.0,66,-99.99,,,0.00,Acu-Link.com,2013-01-23 17:08:00,
2013-01-23 11:23:00,63.3,50.5,30.15,WSW,247,7.8,-999.0,63,-99.99,,,0.00,Acu-Link.com,2013-01-23 17:23:00,
2013-01-23 11:38:00,64.0,51.1,30.16,SSW,202,7.8,-999.0,63,-99.99,,,0.00,Acu-Link.com,2013-01-23 17:38:00,
2013-01-23 11:54:00,64.9,51.1,30.15,SW,225,3.7,-999.0,61,-99.99,,,0.00,Acu-Link.com,2013-01-23 17:54:00,
2013-01-23 12:09:00,66.4,51.6,30.14,SW,225,6.3,-999.0,59,-99.99,,,0.00,Acu-Link.com,2013-01-23 18:09:00,
2013-01-23 12:24:00,67.5,52.2,30.13,SSE,157,4.2,-999.0,58,-99.99,,,0.00,Acu-Link.com,2013-01-23 18:24:00,
2013-01-23 12:40:00,69.1,52.7,30.11,South,180,5.8,-999.0,56,-99.99,,,0.00,Acu-Link.com,2013-01-23 18:40:00,
2013-01-23 12:55:00,70.0,52.6,30.10,SSW,202,6.8,-999.0,54,-99.99,,,0.00,Acu-Link.com,2013-01-23 18:55:00,
2013-01-23 13:10:00,70.7,52.2,30.09,SSW,202,8.3,-999.0,52,-99.99,,,0.00,Acu-Link.com,2013-01-23 19:10:00,
2013-01-23 13:26:00,72.3,53.7,30.07,SW,225,7.3,-999.0,52,-99.99,,,0.00,Acu-Link.com,2013-01-23 19:26:00,
2013-01-23 13:41:00,73.8,54.0,30.07,WSW,247,5.3,-999.0,50,-99.99,,,0.00,Acu-Link.com,2013-01-23 19:41:00,
2013-01-23 13:56:00,73.4,53.6,30.06,SSW,202,6.3,-999.0,50,-99.99,,,0.00,Acu-Link.com,2013-01-23 19:56:00,
2013-01-23 14:12:00,75.7,54.6,30.05,WSW,247,4.2,-999.0,48,-99.99,,,0.00,Acu-Link.com,2013-01-23 20:12:00,
2013-01-23 14:28:00,76.1,54.4,30.05,SSW,202,4.2,-999.0,47,-99.99,,,0.00,Acu-Link.com,2013-01-23 20:28:00,
2013-01-23 14:43:00,76.6,53.7,30.04,SSW,202,6.8,-999.0,45,-99.99,,,0.00,Acu-Link.com,2013-01-23 20:43:00,
2013-01-23 14:58:00,76.6,53.7,30.05,SW,225,5.3,-999.0,45,-99.99,,,0.00,Acu-Link.com,2013-01-23 20:58:00,
2013-01-23 15:13:00,77.4,53.8,30.04,SSW,202,4.2,-999.0,44,-99.99,,,0.00,Acu-Link.com,2013-01-23 21:13:00,
2013-01-23 15:29:00,78.8,54.4,30.03,SSW,202,2.2,-999.0,43,-99.99,,,0.00,Acu-Link.com,2013-01-23 21:29:00,
2013-01-23 15:44:00,77.5,52.6,30.02,SSE,157,5.8,-999.0,42,-99.99,,,0.00,Acu-Link.com,2013-01-23 21:44:00,
2013-01-23 15:59:00,78.1,53.8,30.03,SW,225,8.9,-999.0,43,-99.99,,,0.00,Acu-Link.com,2013-01-23 21:59:00,
2013-01-23 16:15:00,78.8,53.7,30.02,South,180,2.7,-999.0,42,-99.99,,,0.00,Acu-Link.com,2013-01-23 22:15:00,
2013-01-23 16:30:00,78.3,53.9,30.02,SE,135,3.2,-999.0,43,-99.99,,,0.00,Acu-Link.com,2013-01-23 22:30:00,
2013-01-23 16:45:00,77.7,52.8,30.01,SSW,202,7.3,-999.0,42,-99.99,,,0.00,Acu-Link.com,2013-01-23 22:45:00,
2013-01-23 17:01:00,77.5,53.2,30.01,SW,225,5.8,-999.0,43,-99.99,,,0.00,Acu-Link.com,2013-01-23 23:01:00,
2013-01-23 17:16:00,76.8,53.2,30.00,South,180,2.7,-999.0,44,-99.99,,,0.00,Acu-Link.com,2013-01-23 23:16:00,
2013-01-23 17:31:00,76.5,53.6,30.00,SSE,157,1.7,-999.0,45,-99.99,,,0.00,Acu-Link.com,2013-01-23 23:31:00,
2013-01-23 17:46:00,75.2,53.0,29.99,South,180,0.0,-999.0,46,-99.99,,,0.00,Acu-Link.com,2013-01-23 23:46:00,
2013-01-23 18:02:00,72.5,52.2,29.99,SSE,157,2.2,-999.0,49,-99.99,,,0.00,Acu-Link.com,2013-01-24 00:02:00,
2013-01-23 18:17:00,70.7,52.2,29.99,SSE,157,2.7,-999.0,52,-99.99,,,0.00,Acu-Link.com,2013-01-24 00:17:00,
2013-01-23 18:33:00,69.4,52.0,29.99,SSE,157,2.7,-999.0,54,-99.99,,,0.00,Acu-Link.com,2013-01-24 00:33:00,
2013-01-23 18:48:00,68.4,52.1,30.00,SSE,157,2.7,-999.0,56,-99.99,,,0.00,Acu-Link.com,2013-01-24 00:48:00,
2013-01-23 19:03:00,67.1,51.8,30.01,SSE,157,3.2,-999.0,58,-99.99,,,0.00,Acu-Link.com,2013-01-24 01:03:00,
2013-01-23 19:18:00,66.2,52.3,30.01,SSE,157,2.7,-999.0,61,-99.99,,,0.00,Acu-Link.com,2013-01-24 01:18:00,
2013-01-23 19:34:00,65.3,52.8,30.01,SSE,157,3.7,-999.0,64,-99.99,,,0.00,Acu-Link.com,2013-01-24 01:34:00,
2013-01-23 19:49:00,64.6,53.0,30.01,SSE,157,3.2,-999.0,66,-99.99,,,0.00,Acu-Link.com,2013-01-24 01:49:00,
2013-01-23 20:04:00,63.7,52.9,30.02,SSE,157,3.7,-999.0,68,-99.99,,,0.00,Acu-Link.com,2013-01-24 02:04:00,
2013-01-23 20:19:00,62.8,52.9,30.02,SSE,157,2.7,-999.0,70,-99.99,,,0.00,Acu-Link.com,2013-01-24 02:19:00,
2013-01-23 20:35:00,62.4,52.9,30.02,SSE,157,4.2,-999.0,71,-99.99,,,0.00,Acu-Link.com,2013-01-24 02:35:00,
2013-01-23 20:50:00,61.9,53.1,30.01,SSE,157,3.2,-999.0,73,-99.99,,,0.00,Acu-Link.com,2013-01-24 02:50:00,
2013-01-23 21:05:00,60.8,52.8,30.02,SSE,157,3.2,-999.0,75,-99.99,,,0.00,Acu-Link.com,2013-01-24 03:05:00,
2013-01-23 21:21:00,60.1,52.5,30.02,SSE,157,2.7,-999.0,76,-99.99,,,0.00,Acu-Link.com,2013-01-24 03:21:00,
2013-01-23 21:36:00,59.5,51.9,30.02,SSE,157,1.7,-999.0,76,-99.99,,,0.00,Acu-Link.com,2013-01-24 03:36:00,
2013-01-23 21:51:00,60.6,52.3,30.02,SW,225,2.7,-999.0,74,-99.99,,,0.00,Acu-Link.com,2013-01-24 03:51:00,
2013-01-23 22:07:00,60.4,52.1,30.02,SSW,202,3.7,-999.0,74,-99.99,,,0.00,Acu-Link.com,2013-01-24 04:07:00,
2013-01-23 22:22:00,60.4,51.7,30.02,SSW,202,2.7,-999.0,73,-99.99,,,0.00,Acu-Link.com,2013-01-24 04:22:00,
2013-01-23 22:38:00,60.3,52.0,30.03,SW,225,5.8,-999.0,74,-99.99,,,0.00,Acu-Link.com,2013-01-24 04:38:00,
2013-01-23 22:53:00,60.6,51.9,30.03,SW,225,5.3,-999.0,73,-99.99,,,0.00,Acu-Link.com,2013-01-24 04:53:00,
2013-01-23 23:08:00,60.6,52.3,30.03,SSW,202,4.7,-999.0,74,-99.99,,,0.00,Acu-Link.com,2013-01-24 05:08:00,
2013-01-23 23:23:00,60.6,52.3,30.04,South,180,1.7,-999.0,74,-99.99,,,0.00,Acu-Link.com,2013-01-24 05:23:00,
2013-01-23 23:39:00,60.1,52.5,30.04,SW,225,3.7,-999.0,76,-99.99,,,0.00,Acu-Link.com,2013-01-24 05:39:00,
2013-01-23 23:54:00,59.4,52.2,30.04,SSW,202,2.2,-999.0,77,-99.99,,,0.00,Acu-Link.com,2013-01-24 05:54:00,